createdAt,value
2022-10-12T00:00:43.466Z,16.20
2022-10-12T00:03:13.216Z,16.10
2022-10-12T00:05:41.181Z,16.10
2022-10-12T00:08:13.830Z,16.00
2022-10-12T00:10:42.003Z,16.10
2022-10-12T00:13:10.938Z,16.10
2022-10-12T00:15:39.988Z,16.00
2022-10-12T00:18:08.010Z,16.10
2022-10-12T00:20:35.370Z,16.10
2022-10-12T00:23:02.723Z,16.00
2022-10-12T00:25:29.949Z,16.00
2022-10-12T00:27:57.592Z,15.90
2022-10-12T00:30:32.435Z,15.80
2022-10-12T00:32:59.862Z,15.80
2022-10-12T00:35:29.585Z,15.80
2022-10-12T00:37:56.943Z,15.90
2022-10-12T00:40:24.205Z,15.90
2022-10-12T00:42:51.646Z,16.00
2022-10-12T00:45:18.925Z,15.90
2022-10-12T00:47:56.937Z,15.90
2022-10-12T00:50:33.879Z,15.90
2022-10-12T00:53:11.573Z,15.90
2022-10-12T00:55:58.194Z,15.80
2022-10-12T00:58:25.717Z,15.80
2022-10-12T01:00:53.018Z,15.80
2022-10-12T01:03:22.434Z,15.80
2022-10-12T01:05:53.392Z,15.80
2022-10-12T01:08:21.907Z,15.70
2022-10-12T01:10:59.652Z,15.80
2022-10-12T01:13:29.839Z,15.80
2022-10-12T01:16:20.126Z,15.80
2022-10-12T01:19:09.608Z,15.70
2022-10-12T01:21:48.494Z,15.70
2022-10-12T01:24:32.677Z,15.70
2022-10-12T01:27:24.840Z,15.70
2022-10-12T01:30:33.938Z,15.70
2022-10-12T01:34:09.322Z,15.80
2022-10-12T01:36:41.805Z,15.80
2022-10-12T01:39:21.434Z,15.90
2022-10-12T01:41:54.618Z,15.90
2022-10-12T01:44:23.543Z,15.90
2022-10-12T01:46:53.552Z,15.90
2022-10-12T01:49:30.115Z,15.90
2022-10-12T01:55:17.473Z,15.80
2022-10-12T01:57:50.227Z,15.80
2022-10-12T02:00:20.536Z,15.80
2022-10-12T02:02:53.940Z,15.90
2022-10-12T02:05:29.152Z,15.90
2022-10-12T02:08:20.308Z,15.90
2022-10-12T02:10:50.651Z,15.90
2022-10-12T02:13:23.110Z,15.80
2022-10-12T02:15:53.217Z,15.90
2022-10-12T02:18:24.689Z,15.90
2022-10-12T02:20:54.667Z,15.90
2022-10-12T02:23:24.637Z,15.90
2022-10-12T02:25:53.504Z,15.90
2022-10-12T02:28:24.070Z,15.90
2022-10-12T02:31:02.710Z,15.90
2022-10-12T02:33:46.163Z,15.80
2022-10-12T02:36:20.338Z,15.80
2022-10-12T02:38:57.672Z,15.90
2022-10-12T02:41:30.559Z,15.80
2022-10-12T02:44:10.876Z,15.80
2022-10-12T02:46:40.108Z,15.80
2022-10-12T02:49:08.875Z,15.80
2022-10-12T02:51:42.224Z,15.80
2022-10-12T02:54:09.769Z,15.80
2022-10-12T02:56:46.832Z,15.80
2022-10-12T02:59:18.443Z,15.80
2022-10-12T03:01:45.832Z,15.80
2022-10-12T03:04:13.147Z,15.80
2022-10-12T03:06:42.409Z,15.80
2022-10-12T03:09:10.298Z,15.60
2022-10-12T03:11:37.821Z,15.50
2022-10-12T03:14:05.748Z,15.30
2022-10-12T03:16:33.260Z,15.30
2022-10-12T03:19:00.503Z,15.20
2022-10-12T03:21:30.283Z,15.20
2022-10-12T03:23:57.521Z,15.10
2022-10-12T03:26:24.737Z,15.10
2022-10-12T03:28:52.309Z,15.10
2022-10-12T03:31:22.530Z,15.10
2022-10-12T03:33:49.972Z,15.10
2022-10-12T03:36:19.604Z,15.10
2022-10-12T03:38:46.873Z,15.10
2022-10-12T03:41:14.081Z,15.20
2022-10-12T03:43:44.634Z,15.20
2022-10-12T03:46:12.215Z,15.20
2022-10-12T03:48:39.432Z,15.20
2022-10-12T03:51:06.843Z,15.20
2022-10-12T03:53:34.391Z,15.20
2022-10-12T03:56:01.656Z,15.20
2022-10-12T03:58:28.887Z,15.10
2022-10-12T04:00:56.406Z,15.00
2022-10-12T04:03:23.676Z,15.00
2022-10-12T04:05:57.553Z,15.00
2022-10-12T04:08:26.743Z,14.90
2022-10-12T04:10:54.181Z,14.90
2022-10-12T04:13:21.578Z,15.00
2022-10-12T04:15:48.813Z,15.00
2022-10-12T04:18:20.943Z,15.00
2022-10-12T04:20:49.394Z,14.90
2022-10-12T04:23:16.980Z,14.90
2022-10-12T04:25:44.531Z,15.00
2022-10-12T04:28:11.879Z,15.00
2022-10-12T04:30:40.711Z,15.00
2022-10-12T04:33:08.044Z,14.90
2022-10-12T04:35:35.611Z,14.70
2022-10-12T04:38:10.914Z,14.60
2022-10-12T04:40:38.279Z,14.60
2022-10-12T04:43:05.589Z,14.60
2022-10-12T04:45:32.828Z,14.60
2022-10-12T04:48:00.093Z,14.60
2022-10-12T04:50:29.981Z,14.60
2022-10-12T04:52:57.701Z,14.60
2022-10-12T04:55:25.176Z,14.60
2022-10-12T04:57:52.376Z,14.60
2022-10-12T05:00:19.662Z,14.60
2022-10-12T05:02:47.486Z,14.60
2022-10-12T05:05:14.815Z,14.50
2022-10-12T05:07:45.150Z,14.40
2022-10-12T05:10:12.361Z,14.40
2022-10-12T05:12:40.114Z,14.40
2022-10-12T05:15:08.157Z,14.40
2022-10-12T05:17:35.496Z,14.50
2022-10-12T05:20:03.387Z,14.60
2022-10-12T05:22:31.747Z,14.50
2022-10-12T05:25:21.886Z,14.50
2022-10-12T05:27:50.364Z,14.60
2022-10-12T05:30:17.779Z,14.60
2022-10-12T05:32:45.020Z,14.70
2022-10-12T05:35:17.765Z,14.60
2022-10-12T05:37:45.059Z,14.60
2022-10-12T05:40:12.419Z,14.60
2022-10-12T05:42:40.023Z,14.70
2022-10-12T05:45:07.879Z,14.70
2022-10-12T05:47:39.410Z,14.70
2022-10-12T05:50:24.226Z,14.70
2022-10-12T05:52:51.430Z,14.60
2022-10-12T05:55:18.681Z,14.80
2022-10-12T05:57:51.973Z,14.90
2022-10-12T06:00:22.137Z,15.00
2022-10-12T06:02:52.069Z,15.10
2022-10-12T06:05:19.311Z,15.10
2022-10-12T06:07:58.675Z,15.20
2022-10-12T06:10:29.838Z,15.20
2022-10-12T06:12:57.447Z,15.10
2022-10-12T06:15:24.693Z,15.10
2022-10-12T06:17:51.884Z,15.20
2022-10-12T06:20:19.315Z,15.20
2022-10-12T06:22:46.570Z,15.30
2022-10-12T06:25:13.838Z,15.30
2022-10-12T06:28:06.520Z,15.50
2022-10-12T06:30:33.821Z,15.70
2022-10-12T06:33:27.706Z,15.80
2022-10-12T06:35:57.617Z,16.00
2022-10-12T06:38:24.900Z,16.20
2022-10-12T06:40:53.578Z,16.30
2022-10-12T06:43:22.737Z,16.30
2022-10-12T06:45:50.505Z,16.50
